sensor_id;sensor_type;location;lat;lon;timestamp;P1;durP1;ratioP1;P2;durP2;ratioP2
70967;SDS011;58629;48.808;8.820;2022-12-08T00:02:01;7.07;;;3.20;;
70967;SDS011;58629;48.808;8.820;2022-12-08T00:04:27;7.13;;;3.60;;
70967;SDS011;58629;48.808;8.820;2022-12-08T00:06:52;6.30;;;3.37;;
70967;SDS011;58629;48.808;8.820;2022-12-08T00:09:37;7.80;;;3.63;;
70967;SDS011;58629;48.808;8.820;2022-12-08T00:12:05;7.53;;;3.78;;
70967;SDS011;58629;48.808;8.820;2022-12-08T00:14:38;8.18;;;3.90;;
70967;SDS011;58629;48.808;8.820;2022-12-08T00:17:06;8.02;;;3.50;;
70967;SDS011;58629;48.808;8.820;2022-12-08T00:19:33;9.27;;;4.27;;
70967;SDS011;58629;48.808;8.820;2022-12-08T00:21:59;10.18;;;4.57;;
70967;SDS011;58629;48.808;8.820;2022-12-08T00:24:28;11.13;;;4.70;;
70967;SDS011;58629;48.808;8.820;2022-12-08T00:26:55;9.63;;;4.40;;
70967;SDS011;58629;48.808;8.820;2022-12-08T00:29:20;9.15;;;4.40;;
70967;SDS011;58629;48.808;8.820;2022-12-08T00:31:45;9.27;;;4.32;;
70967;SDS011;58629;48.808;8.820;2022-12-08T00:34:12;7.93;;;4.27;;
70967;SDS011;58629;48.808;8.820;2022-12-08T00:36:37;8.77;;;4.10;;
70967;SDS011;58629;48.808;8.820;2022-12-08T00:39:03;8.60;;;3.73;;
70967;SDS011;58629;48.808;8.820;2022-12-08T00:41:28;8.60;;;3.47;;
70967;SDS011;58629;48.808;8.820;2022-12-08T00:44:13;6.80;;;3.10;;
70967;SDS011;58629;48.808;8.820;2022-12-08T00:46:41;6.77;;;3.07;;
70967;SDS011;58629;48.808;8.820;2022-12-08T00:49:06;6.88;;;3.22;;
70967;SDS011;58629;48.808;8.820;2022-12-08T00:51:32;8.13;;;3.63;;
70967;SDS011;58629;48.808;8.820;2022-12-08T00:53:58;8.30;;;3.85;;
70967;SDS011;58629;48.808;8.820;2022-12-08T00:56:24;8.02;;;3.35;;
70967;SDS011;58629;48.808;8.820;2022-12-08T00:58:50;15.10;;;7.30;;
70967;SDS011;58629;48.808;8.820;2022-12-08T01:01:15;14.35;;;6.60;;
70967;SDS011;58629;48.808;8.820;2022-12-08T01:03:41;11.32;;;5.20;;
70967;SDS011;58629;48.808;8.820;2022-12-08T01:06:07;11.50;;;5.57;;
70967;SDS011;58629;48.808;8.820;2022-12-08T01:08:32;11.07;;;5.22;;
70967;SDS011;58629;48.808;8.820;2022-12-08T01:11:03;11.07;;;4.75;;
70967;SDS011;58629;48.808;8.820;2022-12-08T01:13:29;9.05;;;4.35;;
70967;SDS011;58629;48.808;8.820;2022-12-08T01:15:54;9.17;;;4.20;;
70967;SDS011;58629;48.808;8.820;2022-12-08T01:18:19;8.37;;;4.10;;
70967;SDS011;58629;48.808;8.820;2022-12-08T01:20:45;7.20;;;3.63;;
70967;SDS011;58629;48.808;8.820;2022-12-08T01:23:10;7.57;;;3.43;;
70967;SDS011;58629;48.808;8.820;2022-12-08T01:25:35;6.37;;;3.60;;
70967;SDS011;58629;48.808;8.820;2022-12-08T01:28:01;7.63;;;3.60;;
70967;SDS011;58629;48.808;8.820;2022-12-08T01:30:26;6.80;;;3.43;;
70967;SDS011;58629;48.808;8.820;2022-12-08T01:32:51;7.23;;;3.13;;
70967;SDS011;58629;48.808;8.820;2022-12-08T01:35:16;7.17;;;3.67;;
70967;SDS011;58629;48.808;8.820;2022-12-08T01:37:43;8.38;;;3.72;;
70967;SDS011;58629;48.808;8.820;2022-12-08T01:40:08;8.67;;;3.90;;
70967;SDS011;58629;48.808;8.820;2022-12-08T01:42:33;12.37;;;5.70;;
70967;SDS011;58629;48.808;8.820;2022-12-08T01:45:04;11.57;;;5.10;;
70967;SDS011;58629;48.808;8.820;2022-12-08T01:47:38;10.43;;;4.70;;
70967;SDS011;58629;48.808;8.820;2022-12-08T01:50:08;8.73;;;4.38;;
70967;SDS011;58629;48.808;8.820;2022-12-08T01:52:43;9.95;;;4.40;;
70967;SDS011;58629;48.808;8.820;2022-12-08T01:55:16;8.02;;;4.07;;
70967;SDS011;58629;48.808;8.820;2022-12-08T01:57:46;8.70;;;3.73;;
70967;SDS011;58629;48.808;8.820;2022-12-08T02:00:16;8.27;;;3.90;;
70967;SDS011;58629;48.808;8.820;2022-12-08T02:05:30;6.53;;;3.30;;
70967;SDS011;58629;48.808;8.820;2022-12-08T02:07:58;8.40;;;3.60;;
70967;SDS011;58629;48.808;8.820;2022-12-08T02:10:27;8.43;;;3.60;;
70967;SDS011;58629;48.808;8.820;2022-12-08T02:12:54;7.57;;;3.30;;
70967;SDS011;58629;48.808;8.820;2022-12-08T02:15:23;7.10;;;3.17;;
70967;SDS011;58629;48.808;8.820;2022-12-08T02:20:46;8.75;;;3.55;;
70967;SDS011;58629;48.808;8.820;2022-12-08T02:23:25;8.70;;;3.50;;
70967;SDS011;58629;48.808;8.820;2022-12-08T02:31:36;9.07;;;4.07;;
70967;SDS011;58629;48.808;8.820;2022-12-08T02:34:14;8.82;;;4.10;;
70967;SDS011;58629;48.808;8.820;2022-12-08T02:36:54;9.43;;;4.27;;
70967;SDS011;58629;48.808;8.820;2022-12-08T02:42:25;9.70;;;4.18;;
70967;SDS011;58629;48.808;8.820;2022-12-08T02:48:02;8.90;;;3.92;;
70967;SDS011;58629;48.808;8.820;2022-12-08T02:50:28;8.30;;;3.73;;
70967;SDS011;58629;48.808;8.820;2022-12-08T02:52:53;9.03;;;3.77;;
70967;SDS011;58629;48.808;8.820;2022-12-08T02:55:21;7.82;;;3.28;;
70967;SDS011;58629;48.808;8.820;2022-12-08T03:01:26;6.55;;;2.80;;
70967;SDS011;58629;48.808;8.820;2022-12-08T03:03:36;7.15;;;3.05;;
70967;SDS011;58629;48.808;8.820;2022-12-08T03:09:24;6.78;;;2.92;;
70967;SDS011;58629;48.808;8.820;2022-12-08T03:11:55;6.67;;;2.83;;
70967;SDS011;58629;48.808;8.820;2022-12-08T03:14:26;7.13;;;3.40;;
70967;SDS011;58629;48.808;8.820;2022-12-08T03:16:54;7.53;;;3.33;;
70967;SDS011;58629;48.808;8.820;2022-12-08T03:19:24;7.95;;;3.28;;
70967;SDS011;58629;48.808;8.820;2022-12-08T03:21:53;7.70;;;3.13;;
70967;SDS011;58629;48.808;8.820;2022-12-08T03:24:26;6.77;;;2.77;;
70967;SDS011;58629;48.808;8.820;2022-12-08T03:26:56;6.55;;;2.78;;
70967;SDS011;58629;48.808;8.820;2022-12-08T03:29:26;7.13;;;2.83;;
70967;SDS011;58629;48.808;8.820;2022-12-08T03:31:53;6.57;;;3.23;;
70967;SDS011;58629;48.808;8.820;2022-12-08T03:34:29;6.93;;;3.13;;
70967;SDS011;58629;48.808;8.820;2022-12-08T03:36:54;8.88;;;3.85;;
70967;SDS011;58629;48.808;8.820;2022-12-08T03:39:20;7.10;;;3.23;;
70967;SDS011;58629;48.808;8.820;2022-12-08T03:41:45;7.50;;;3.40;;
70967;SDS011;58629;48.808;8.820;2022-12-08T03:44:11;7.90;;;3.60;;
70967;SDS011;58629;48.808;8.820;2022-12-08T03:46:36;7.40;;;3.22;;
70967;SDS011;58629;48.808;8.820;2022-12-08T03:49:02;5.90;;;3.00;;
70967;SDS011;58629;48.808;8.820;2022-12-08T03:51:27;8.20;;;3.43;;
70967;SDS011;58629;48.808;8.820;2022-12-08T03:53:53;6.00;;;3.17;;
70967;SDS011;58629;48.808;8.820;2022-12-08T03:56:21;6.40;;;3.05;;
70967;SDS011;58629;48.808;8.820;2022-12-08T03:58:52;6.53;;;2.80;;
70967;SDS011;58629;48.808;8.820;2022-12-08T04:01:18;6.25;;;2.85;;
70967;SDS011;58629;48.808;8.820;2022-12-08T04:03:44;6.72;;;3.05;;
70967;SDS011;58629;48.808;8.820;2022-12-08T04:06:09;8.67;;;4.23;;
70967;SDS011;58629;48.808;8.820;2022-12-08T04:08:34;8.87;;;4.13;;
70967;SDS011;58629;48.808;8.820;2022-12-08T04:11:00;8.37;;;3.83;;
70967;SDS011;58629;48.808;8.820;2022-12-08T04:13:25;10.20;;;3.87;;
70967;SDS011;58629;48.808;8.820;2022-12-08T04:15:51;7.97;;;3.80;;
70967;SDS011;58629;48.808;8.820;2022-12-08T04:18:16;7.70;;;3.27;;
70967;SDS011;58629;48.808;8.820;2022-12-08T04:20:42;5.97;;;2.83;;
70967;SDS011;58629;48.808;8.820;2022-12-08T04:23:08;6.32;;;2.90;;
70967;SDS011;58629;48.808;8.820;2022-12-08T04:25:35;6.55;;;2.95;;
70967;SDS011;58629;48.808;8.820;2022-12-08T04:28:01;7.80;;;3.05;;
70967;SDS011;58629;48.808;8.820;2022-12-08T04:30:26;7.13;;;3.10;;
70967;SDS011;58629;48.808;8.820;2022-12-08T04:32:51;6.53;;;2.93;;
70967;SDS011;58629;48.808;8.820;2022-12-08T04:35:17;6.63;;;3.07;;
70967;SDS011;58629;48.808;8.820;2022-12-08T04:37:42;8.50;;;3.43;;
70967;SDS011;58629;48.808;8.820;2022-12-08T04:40:08;7.50;;;3.50;;
70967;SDS011;58629;48.808;8.820;2022-12-08T04:42:35;7.15;;;3.20;;
70967;SDS011;58629;48.808;8.820;2022-12-08T04:45:00;7.33;;;3.07;;
70967;SDS011;58629;48.808;8.820;2022-12-08T04:47:25;7.60;;;3.33;;
70967;SDS011;58629;48.808;8.820;2022-12-08T04:49:51;8.57;;;3.50;;
70967;SDS011;58629;48.808;8.820;2022-12-08T04:52:16;7.97;;;3.30;;
70967;SDS011;58629;48.808;8.820;2022-12-08T04:54:41;7.43;;;3.17;;
70967;SDS011;58629;48.808;8.820;2022-12-08T04:57:06;7.63;;;3.13;;
70967;SDS011;58629;48.808;8.820;2022-12-08T04:59:32;7.10;;;3.47;;
70967;SDS011;58629;48.808;8.820;2022-12-08T05:01:57;9.65;;;3.50;;
70967;SDS011;58629;48.808;8.820;2022-12-08T05:04:22;9.25;;;3.85;;
70967;SDS011;58629;48.808;8.820;2022-12-08T05:06:48;10.68;;;4.43;;
70967;SDS011;58629;48.808;8.820;2022-12-08T05:09:13;9.97;;;4.33;;
70967;SDS011;58629;48.808;8.820;2022-12-08T05:11:38;9.80;;;4.40;;
70967;SDS011;58629;48.808;8.820;2022-12-08T05:14:07;11.40;;;5.00;;
70967;SDS011;58629;48.808;8.820;2022-12-08T05:16:35;12.48;;;5.15;;
70967;SDS011;58629;48.808;8.820;2022-12-08T05:19:01;10.50;;;4.60;;
70967;SDS011;58629;48.808;8.820;2022-12-08T05:21:26;11.07;;;4.63;;
70967;SDS011;58629;48.808;8.820;2022-12-08T05:23:52;8.77;;;3.83;;
70967;SDS011;58629;48.808;8.820;2022-12-08T05:26:17;9.80;;;3.83;;
70967;SDS011;58629;48.808;8.820;2022-12-08T05:28:42;8.60;;;3.70;;
70967;SDS011;58629;48.808;8.820;2022-12-08T05:31:08;7.60;;;3.50;;
70967;SDS011;58629;48.808;8.820;2022-12-08T05:33:33;8.32;;;3.72;;
70967;SDS011;58629;48.808;8.820;2022-12-08T05:35:59;7.50;;;3.27;;
70967;SDS011;58629;48.808;8.820;2022-12-08T05:38:24;7.27;;;3.13;;
70967;SDS011;58629;48.808;8.820;2022-12-08T05:40:49;7.03;;;3.40;;
70967;SDS011;58629;48.808;8.820;2022-12-08T05:43:15;9.70;;;4.60;;
70967;SDS011;58629;48.808;8.820;2022-12-08T05:45:40;12.50;;;5.77;;
70967;SDS011;58629;48.808;8.820;2022-12-08T05:48:05;11.63;;;5.47;;
70967;SDS011;58629;48.808;8.820;2022-12-08T05:50:30;14.87;;;6.20;;
70967;SDS011;58629;48.808;8.820;2022-12-08T05:52:56;15.05;;;6.45;;
70967;SDS011;58629;48.808;8.820;2022-12-08T05:55:21;12.38;;;6.00;;
70967;SDS011;58629;48.808;8.820;2022-12-08T05:57:46;10.07;;;5.45;;
70967;SDS011;58629;48.808;8.820;2022-12-08T06:00:12;10.50;;;5.10;;
70967;SDS011;58629;48.808;8.820;2022-12-08T06:02:37;9.73;;;4.63;;
70967;SDS011;58629;48.808;8.820;2022-12-08T06:05:03;9.73;;;4.53;;
70967;SDS011;58629;48.808;8.820;2022-12-08T06:07:28;8.13;;;4.30;;
70967;SDS011;58629;48.808;8.820;2022-12-08T06:09:54;12.90;;;4.95;;
70967;SDS011;58629;48.808;8.820;2022-12-08T06:12:19;14.07;;;6.27;;
70967;SDS011;58629;48.808;8.820;2022-12-08T06:14:45;9.20;;;4.73;;
70967;SDS011;58629;48.808;8.820;2022-12-08T06:17:10;10.57;;;4.78;;
70967;SDS011;58629;48.808;8.820;2022-12-08T06:19:36;8.57;;;4.20;;
70967;SDS011;58629;48.808;8.820;2022-12-08T06:22:01;8.43;;;3.80;;
70967;SDS011;58629;48.808;8.820;2022-12-08T06:24:26;8.23;;;3.73;;
70967;SDS011;58629;48.808;8.820;2022-12-08T06:26:51;7.20;;;3.67;;
70967;SDS011;58629;48.808;8.820;2022-12-08T06:29:17;8.17;;;4.10;;
70967;SDS011;58629;48.808;8.820;2022-12-08T06:31:42;7.73;;;3.27;;
70967;SDS011;58629;48.808;8.820;2022-12-08T06:34:07;7.50;;;3.37;;
70967;SDS011;58629;48.808;8.820;2022-12-08T06:39:54;6.88;;;3.45;;
70967;SDS011;58629;48.808;8.820;2022-12-08T06:42:19;9.07;;;3.90;;
70967;SDS011;58629;48.808;8.820;2022-12-08T06:45:03;6.15;;;3.05;;
70967;SDS011;58629;48.808;8.820;2022-12-08T06:47:29;7.63;;;3.30;;
70967;SDS011;58629;48.808;8.820;2022-12-08T06:49:54;8.07;;;3.47;;
70967;SDS011;58629;48.808;8.820;2022-12-08T06:52:19;6.80;;;3.30;;
70967;SDS011;58629;48.808;8.820;2022-12-08T06:54:45;7.53;;;3.20;;
70967;SDS011;58629;48.808;8.820;2022-12-08T06:57:10;6.13;;;2.70;;
70967;SDS011;58629;48.808;8.820;2022-12-08T06:59:35;7.40;;;3.10;;
70967;SDS011;58629;48.808;8.820;2022-12-08T07:02:02;7.75;;;3.22;;
70967;SDS011;58629;48.808;8.820;2022-12-08T07:04:27;7.90;;;3.50;;
70967;SDS011;58629;48.808;8.820;2022-12-08T07:06:53;7.30;;;3.80;;
70967;SDS011;58629;48.808;8.820;2022-12-08T07:09:18;7.77;;;3.50;;
70967;SDS011;58629;48.808;8.820;2022-12-08T07:11:43;7.77;;;3.33;;
70967;SDS011;58629;48.808;8.820;2022-12-08T07:14:09;5.70;;;2.58;;
70967;SDS011;58629;48.808;8.820;2022-12-08T07:16:35;5.40;;;2.70;;
70967;SDS011;58629;48.808;8.820;2022-12-08T07:19:00;6.60;;;3.20;;
70967;SDS011;58629;48.808;8.820;2022-12-08T07:21:25;14.10;;;5.57;;
70967;SDS011;58629;48.808;8.820;2022-12-08T07:23:51;13.20;;;5.63;;
70967;SDS011;58629;48.808;8.820;2022-12-08T07:26:16;10.73;;;5.20;;
70967;SDS011;58629;48.808;8.820;2022-12-08T07:28:42;12.67;;;5.47;;
70967;SDS011;58629;48.808;8.820;2022-12-08T07:31:07;14.55;;;6.43;;
70967;SDS011;58629;48.808;8.820;2022-12-08T07:33:41;21.33;;;10.15;;
70967;SDS011;58629;48.808;8.820;2022-12-08T07:36:06;22.75;;;11.43;;
70967;SDS011;58629;48.808;8.820;2022-12-08T07:38:32;23.53;;;10.67;;
70967;SDS011;58629;48.808;8.820;2022-12-08T07:40:58;23.97;;;11.13;;
70967;SDS011;58629;48.808;8.820;2022-12-08T07:43:23;19.25;;;8.50;;
70967;SDS011;58629;48.808;8.820;2022-12-08T07:45:49;16.43;;;6.93;;
70967;SDS011;58629;48.808;8.820;2022-12-08T07:48:14;13.10;;;6.00;;
70967;SDS011;58629;48.808;8.820;2022-12-08T07:50:40;12.45;;;6.13;;
70967;SDS011;58629;48.808;8.820;2022-12-08T07:53:06;12.77;;;5.53;;
70967;SDS011;58629;48.808;8.820;2022-12-08T07:55:31;11.50;;;5.28;;
70967;SDS011;58629;48.808;8.820;2022-12-08T07:57:57;13.45;;;5.97;;
70967;SDS011;58629;48.808;8.820;2022-12-08T08:00:22;13.97;;;6.33;;
70967;SDS011;58629;48.808;8.820;2022-12-08T08:02:47;13.73;;;6.17;;
70967;SDS011;58629;48.808;8.820;2022-12-08T08:05:13;12.80;;;6.00;;
70967;SDS011;58629;48.808;8.820;2022-12-08T08:07:38;14.33;;;6.53;;
70967;SDS011;58629;48.808;8.820;2022-12-08T08:10:07;12.07;;;6.00;;
70967;SDS011;58629;48.808;8.820;2022-12-08T08:12:33;18.40;;;7.72;;
70967;SDS011;58629;48.808;8.820;2022-12-08T08:14:59;18.27;;;6.87;;
70967;SDS011;58629;48.808;8.820;2022-12-08T08:17:24;14.52;;;6.38;;
70967;SDS011;58629;48.808;8.820;2022-12-08T08:19:50;12.63;;;6.07;;
70967;SDS011;58629;48.808;8.820;2022-12-08T08:22:15;11.03;;;5.50;;
70967;SDS011;58629;48.808;8.820;2022-12-08T08:24:40;12.33;;;5.67;;
70967;SDS011;58629;48.808;8.820;2022-12-08T08:27:05;13.07;;;6.13;;
70967;SDS011;58629;48.808;8.820;2022-12-08T08:29:31;14.57;;;6.53;;
70967;SDS011;58629;48.808;8.820;2022-12-08T08:31:56;13.03;;;6.23;;
70967;SDS011;58629;48.808;8.820;2022-12-08T08:34:21;15.30;;;7.10;;
70967;SDS011;58629;48.808;8.820;2022-12-08T08:36:47;14.93;;;6.83;;
70967;SDS011;58629;48.808;8.820;2022-12-08T08:39:12;15.37;;;7.30;;
70967;SDS011;58629;48.808;8.820;2022-12-08T08:41:38;14.38;;;6.85;;
70967;SDS011;58629;48.808;8.820;2022-12-08T08:44:03;15.52;;;6.95;;
70967;SDS011;58629;48.808;8.820;2022-12-08T08:46:29;16.03;;;6.53;;
70967;SDS011;58629;48.808;8.820;2022-12-08T08:48:55;14.13;;;6.13;;
70967;SDS011;58629;48.808;8.820;2022-12-08T08:51:20;11.50;;;5.80;;
70967;SDS011;58629;48.808;8.820;2022-12-08T08:53:45;14.37;;;5.90;;
70967;SDS011;58629;48.808;8.820;2022-12-08T08:56:12;12.27;;;5.60;;
70967;SDS011;58629;48.808;8.820;2022-12-08T08:58:39;12.02;;;5.40;;
70967;SDS011;58629;48.808;8.820;2022-12-08T09:01:05;13.05;;;5.68;;
70967;SDS011;58629;48.808;8.820;2022-12-08T09:03:30;13.03;;;5.90;;
70967;SDS011;58629;48.808;8.820;2022-12-08T09:05:55;10.60;;;5.00;;
70967;SDS011;58629;48.808;8.820;2022-12-08T09:08:21;11.77;;;5.70;;
70967;SDS011;58629;48.808;8.820;2022-12-08T09:10:47;12.90;;;6.00;;
70967;SDS011;58629;48.808;8.820;2022-12-08T09:13:12;12.63;;;6.03;;
70967;SDS011;58629;48.808;8.820;2022-12-08T09:15:37;11.60;;;5.80;;
70967;SDS011;58629;48.808;8.820;2022-12-08T09:18:03;12.67;;;5.90;;
70967;SDS011;58629;48.808;8.820;2022-12-08T09:20:30;11.75;;;5.68;;
70967;SDS011;58629;48.808;8.820;2022-12-08T09:22:56;10.43;;;4.90;;
70967;SDS011;58629;48.808;8.820;2022-12-08T09:25:22;8.77;;;4.07;;
70967;SDS011;58629;48.808;8.820;2022-12-08T09:27:47;9.55;;;4.60;;
70967;SDS011;58629;48.808;8.820;2022-12-08T09:30:12;9.90;;;4.70;;
70967;SDS011;58629;48.808;8.820;2022-12-08T09:32:38;10.43;;;4.85;;
70967;SDS011;58629;48.808;8.820;2022-12-08T09:35:04;9.50;;;4.63;;
70967;SDS011;58629;48.808;8.820;2022-12-08T09:37:29;10.70;;;4.97;;
70967;SDS011;58629;48.808;8.820;2022-12-08T09:39:54;10.93;;;5.70;;
70967;SDS011;58629;48.808;8.820;2022-12-08T09:42:43;11.33;;;5.37;;
70967;SDS011;58629;48.808;8.820;2022-12-08T09:45:12;8.98;;;4.50;;
70967;SDS011;58629;48.808;8.820;2022-12-08T09:47:44;11.27;;;5.20;;
70967;SDS011;58629;48.808;8.820;2022-12-08T09:52:53;13.20;;;5.40;;
70967;SDS011;58629;48.808;8.820;2022-12-08T09:55:42;11.73;;;5.80;;
70967;SDS011;58629;48.808;8.820;2022-12-08T09:58:44;11.05;;;4.97;;
70967;SDS011;58629;48.808;8.820;2022-12-08T10:01:11;8.75;;;4.28;;
70967;SDS011;58629;48.808;8.820;2022-12-08T10:03:37;8.93;;;4.10;;
70967;SDS011;58629;48.808;8.820;2022-12-08T10:06:20;9.55;;;4.63;;
70967;SDS011;58629;48.808;8.820;2022-12-08T10:11:28;8.70;;;4.30;;
70967;SDS011;58629;48.808;8.820;2022-12-08T10:16:48;8.37;;;4.10;;
70967;SDS011;58629;48.808;8.820;2022-12-08T10:19:20;10.88;;;4.40;;
70967;SDS011;58629;48.808;8.820;2022-12-08T10:21:47;9.38;;;4.78;;
70967;SDS011;58629;48.808;8.820;2022-12-08T10:24:25;7.78;;;3.90;;
70967;SDS011;58629;48.808;8.820;2022-12-08T10:26:55;9.43;;;4.50;;
70967;SDS011;58629;48.808;8.820;2022-12-08T10:29:21;8.53;;;4.07;;
70967;SDS011;58629;48.808;8.820;2022-12-08T10:31:47;6.50;;;3.53;;
70967;SDS011;58629;48.808;8.820;2022-12-08T10:34:17;7.63;;;3.83;;
70967;SDS011;58629;48.808;8.820;2022-12-08T10:39:31;9.43;;;4.53;;
70967;SDS011;58629;48.808;8.820;2022-12-08T10:44:51;8.18;;;4.22;;
70967;SDS011;58629;48.808;8.820;2022-12-08T10:47:20;8.05;;;4.05;;
70967;SDS011;58629;48.808;8.820;2022-12-08T10:49:49;9.00;;;4.60;;
70967;SDS011;58629;48.808;8.820;2022-12-08T10:52:45;8.20;;;4.32;;
70967;SDS011;58629;48.808;8.820;2022-12-08T10:55:18;7.93;;;3.97;;
70967;SDS011;58629;48.808;8.820;2022-12-08T10:57:44;8.20;;;3.72;;
70967;SDS011;58629;48.808;8.820;2022-12-08T11:00:13;6.90;;;4.00;;
70967;SDS011;58629;48.808;8.820;2022-12-08T11:03:00;6.53;;;3.17;;
70967;SDS011;58629;48.808;8.820;2022-12-08T11:05:27;6.95;;;2.95;;
70967;SDS011;58629;48.808;8.820;2022-12-08T11:07:58;7.13;;;3.40;;
70967;SDS011;58629;48.808;8.820;2022-12-08T11:10:34;5.57;;;2.83;;
70967;SDS011;58629;48.808;8.820;2022-12-08T11:13:13;5.60;;;2.85;;
70967;SDS011;58629;48.808;8.820;2022-12-08T11:15:43;5.60;;;3.03;;
70967;SDS011;58629;48.808;8.820;2022-12-08T11:18:29;5.00;;;2.50;;
70967;SDS011;58629;48.808;8.820;2022-12-08T11:21:12;5.25;;;2.97;;
70967;SDS011;58629;48.808;8.820;2022-12-08T11:23:40;7.43;;;3.97;;
70967;SDS011;58629;48.808;8.820;2022-12-08T11:26:11;7.90;;;3.95;;
70967;SDS011;58629;48.808;8.820;2022-12-08T11:28:45;6.90;;;3.40;;
70967;SDS011;58629;48.808;8.820;2022-12-08T11:31:21;5.70;;;3.07;;
70967;SDS011;58629;48.808;8.820;2022-12-08T11:33:52;5.53;;;2.67;;
70967;SDS011;58629;48.808;8.820;2022-12-08T11:36:17;4.73;;;2.53;;
70967;SDS011;58629;48.808;8.820;2022-12-08T11:38:46;4.03;;;2.30;;
70967;SDS011;58629;48.808;8.820;2022-12-08T11:41:16;4.07;;;1.95;;
70967;SDS011;58629;48.808;8.820;2022-12-08T11:43:52;3.80;;;1.80;;
70967;SDS011;58629;48.808;8.820;2022-12-08T11:46:23;4.35;;;2.03;;
70967;SDS011;58629;48.808;8.820;2022-12-08T11:48:56;3.85;;;1.60;;
70967;SDS011;58629;48.808;8.820;2022-12-08T11:54:27;3.42;;;1.60;;
70967;SDS011;58629;48.808;8.820;2022-12-08T11:56:57;3.27;;;1.57;;
70967;SDS011;58629;48.808;8.820;2022-12-08T11:59:31;2.75;;;1.48;;
70967;SDS011;58629;48.808;8.820;2022-12-08T12:02:02;2.75;;;1.45;;
70967;SDS011;58629;48.808;8.820;2022-12-08T12:12:58;11.00;;;4.60;;
70967;SDS011;58629;48.808;8.820;2022-12-08T12:21:11;6.80;;;3.67;;
70967;SDS011;58629;48.808;8.820;2022-12-08T12:23:44;6.68;;;3.65;;
70967;SDS011;58629;48.808;8.820;2022-12-08T12:26:19;6.13;;;3.27;;
70967;SDS011;58629;48.808;8.820;2022-12-08T12:28:51;6.30;;;3.42;;
70967;SDS011;58629;48.808;8.820;2022-12-08T12:31:25;9.35;;;4.28;;
70967;SDS011;58629;48.808;8.820;2022-12-08T12:33:54;6.63;;;3.42;;
70967;SDS011;58629;48.808;8.820;2022-12-08T12:36:29;6.55;;;3.40;;
70967;SDS011;58629;48.808;8.820;2022-12-08T12:38:56;8.07;;;3.70;;
70967;SDS011;58629;48.808;8.820;2022-12-08T12:41:30;7.43;;;4.10;;
70967;SDS011;58629;48.808;8.820;2022-12-08T12:46:51;7.13;;;3.85;;
70967;SDS011;58629;48.808;8.820;2022-12-08T12:52:47;7.60;;;4.13;;
70967;SDS011;58629;48.808;8.820;2022-12-08T12:57:22;7.43;;;4.07;;
70967;SDS011;58629;48.808;8.820;2022-12-08T13:02:16;6.43;;;3.30;;
70967;SDS011;58629;48.808;8.820;2022-12-08T13:04:45;6.47;;;3.38;;
70967;SDS011;58629;48.808;8.820;2022-12-08T13:07:29;7.32;;;3.40;;
70967;SDS011;58629;48.808;8.820;2022-12-08T13:10:02;7.33;;;3.53;;
70967;SDS011;58629;48.808;8.820;2022-12-08T13:12:36;6.38;;;3.53;;
70967;SDS011;58629;48.808;8.820;2022-12-08T13:15:02;8.10;;;3.70;;
70967;SDS011;58629;48.808;8.820;2022-12-08T13:17:30;6.00;;;3.05;;
70967;SDS011;58629;48.808;8.820;2022-12-08T13:20:01;5.70;;;3.15;;
70967;SDS011;58629;48.808;8.820;2022-12-08T13:30:58;5.35;;;2.75;;
70967;SDS011;58629;48.808;8.820;2022-12-08T13:33:25;4.72;;;2.63;;
70967;SDS011;58629;48.808;8.820;2022-12-08T13:35:55;4.63;;;2.40;;
70967;SDS011;58629;48.808;8.820;2022-12-08T13:38:28;6.80;;;3.20;;
70967;SDS011;58629;48.808;8.820;2022-12-08T13:40:56;5.67;;;3.10;;
70967;SDS011;58629;48.808;8.820;2022-12-08T13:43:36;5.07;;;2.60;;
70967;SDS011;58629;48.808;8.820;2022-12-08T13:46:08;5.00;;;2.85;;
70967;SDS011;58629;48.808;8.820;2022-12-08T13:51:28;5.10;;;2.40;;
70967;SDS011;58629;48.808;8.820;2022-12-08T13:54:05;5.28;;;2.60;;
70967;SDS011;58629;48.808;8.820;2022-12-08T13:56:38;6.13;;;2.78;;
70967;SDS011;58629;48.808;8.820;2022-12-08T14:01:52;7.30;;;3.70;;
70967;SDS011;58629;48.808;8.820;2022-12-08T14:04:19;8.30;;;3.80;;
70967;SDS011;58629;48.808;8.820;2022-12-08T14:06:47;9.07;;;4.20;;
70967;SDS011;58629;48.808;8.820;2022-12-08T14:09:21;8.40;;;4.65;;
70967;SDS011;58629;48.808;8.820;2022-12-08T14:11:55;7.55;;;4.30;;
70967;SDS011;58629;48.808;8.820;2022-12-08T14:14:27;7.88;;;4.50;;
70967;SDS011;58629;48.808;8.820;2022-12-08T14:16:56;8.63;;;4.47;;
70967;SDS011;58629;48.808;8.820;2022-12-08T14:19:25;9.20;;;4.15;;
70967;SDS011;58629;48.808;8.820;2022-12-08T14:21:55;8.45;;;4.07;;
70967;SDS011;58629;48.808;8.820;2022-12-08T14:24:22;8.57;;;4.18;;
70967;SDS011;58629;48.808;8.820;2022-12-08T14:26:50;9.32;;;4.47;;
70967;SDS011;58629;48.808;8.820;2022-12-08T14:29:31;9.47;;;4.20;;
70967;SDS011;58629;48.808;8.820;2022-12-08T14:32:02;7.18;;;3.50;;
70967;SDS011;58629;48.808;8.820;2022-12-08T14:34:28;8.55;;;3.70;;
70967;SDS011;58629;48.808;8.820;2022-12-08T14:36:54;5.97;;;3.13;;
70967;SDS011;58629;48.808;8.820;2022-12-08T14:39:19;4.72;;;2.53;;
70967;SDS011;58629;48.808;8.820;2022-12-08T14:41:57;6.13;;;3.13;;
70967;SDS011;58629;48.808;8.820;2022-12-08T14:44:24;5.97;;;3.00;;
70967;SDS011;58629;48.808;8.820;2022-12-08T14:47:05;5.33;;;2.80;;
70967;SDS011;58629;48.808;8.820;2022-12-08T14:49:34;4.85;;;2.30;;
70967;SDS011;58629;48.808;8.820;2022-12-08T14:52:12;4.60;;;2.40;;
70967;SDS011;58629;48.808;8.820;2022-12-08T14:54:38;4.50;;;2.38;;
70967;SDS011;58629;48.808;8.820;2022-12-08T14:57:08;4.60;;;2.13;;
70967;SDS011;58629;48.808;8.820;2022-12-08T14:59:37;3.40;;;2.00;;
70967;SDS011;58629;48.808;8.820;2022-12-08T15:04:36;3.83;;;2.25;;
70967;SDS011;58629;48.808;8.820;2022-12-08T15:09:39;3.22;;;2.03;;
70967;SDS011;58629;48.808;8.820;2022-12-08T15:14:39;2.90;;;1.55;;
70967;SDS011;58629;48.808;8.820;2022-12-08T15:17:30;2.50;;;1.50;;
70967;SDS011;58629;48.808;8.820;2022-12-08T15:19:59;3.25;;;1.70;;
70967;SDS011;58629;48.808;8.820;2022-12-08T15:22:25;2.40;;;1.40;;
70967;SDS011;58629;48.808;8.820;2022-12-08T15:24:53;2.60;;;1.30;;
70967;SDS011;58629;48.808;8.820;2022-12-08T15:27:20;2.67;;;1.30;;
70967;SDS011;58629;48.808;8.820;2022-12-08T15:29:47;2.63;;;1.58;;
70967;SDS011;58629;48.808;8.820;2022-12-08T15:32:15;2.33;;;1.10;;
70967;SDS011;58629;48.808;8.820;2022-12-08T15:34:43;2.63;;;1.50;;
70967;SDS011;58629;48.808;8.820;2022-12-08T15:37:15;2.93;;;1.80;;
70967;SDS011;58629;48.808;8.820;2022-12-08T15:39:44;3.17;;;1.77;;
70967;SDS011;58629;48.808;8.820;2022-12-08T15:42:10;2.13;;;1.30;;
70967;SDS011;58629;48.808;8.820;2022-12-08T15:44:36;2.10;;;1.10;;
70967;SDS011;58629;48.808;8.820;2022-12-08T15:47:02;2.57;;;1.57;;
70967;SDS011;58629;48.808;8.820;2022-12-08T15:49:27;2.30;;;1.40;;
70967;SDS011;58629;48.808;8.820;2022-12-08T15:51:52;2.60;;;1.20;;
70967;SDS011;58629;48.808;8.820;2022-12-08T15:54:18;2.53;;;1.30;;
70967;SDS011;58629;48.808;8.820;2022-12-08T15:56:48;2.73;;;1.30;;
70967;SDS011;58629;48.808;8.820;2022-12-08T15:59:16;3.72;;;2.13;;
70967;SDS011;58629;48.808;8.820;2022-12-08T16:01:44;3.08;;;1.55;;
70967;SDS011;58629;48.808;8.820;2022-12-08T16:04:13;2.50;;;1.47;;
70967;SDS011;58629;48.808;8.820;2022-12-08T16:06:41;3.30;;;1.60;;
70967;SDS011;58629;48.808;8.820;2022-12-08T16:11:44;3.03;;;1.60;;
70967;SDS011;58629;48.808;8.820;2022-12-08T16:14:29;1.93;;;1.13;;
70967;SDS011;58629;48.808;8.820;2022-12-08T16:16:54;3.45;;;1.83;;
70967;SDS011;58629;48.808;8.820;2022-12-08T16:19:20;4.10;;;2.47;;
70967;SDS011;58629;48.808;8.820;2022-12-08T16:21:45;2.80;;;1.80;;
70967;SDS011;58629;48.808;8.820;2022-12-08T16:24:10;6.20;;;3.20;;